Time;durP1;ratioP1;P1;durP2;ratioP2;P2;SDS_P1;SDS_P2;PMS_P1;PMS_P2;Temp;Humidity;BMP_temperature;BMP_pressure;BME280_temperature;BME280_humidity;BME280_pressure;Samples;Min_cycle;Max_cycle;Signal;HPM_P1;HPM_P2
2023/10/11 00:02:53;;;;;;;4.53;2.35;;;;;;;12.06;68.96;95474.63;5075930;28;20108;-73
2023/10/11 00:05:19;;;;;;;4.57;2.70;;;;;;;12.06;68.93;95473.78;5076051;28;20711;-73
2023/10/11 00:07:44;;;;;;;4.38;2.67;;;;;;;12.01;68.82;95461.13;5075728;28;20035;-73
2023/10/11 00:10:19;;;;;;;4.80;2.78;;;;;;;12.10;68.81;95479.59;5056152;28;20036;-73
2023/10/11 00:12:44;;;;;;;6.35;3.05;;;;;;;12.07;68.61;95481.47;5080561;28;20028;-73
2023/10/11 00:15:10;;;;;;;6.47;2.70;;;;;;;11.86;69.13;95454.50;5094516;28;20036;-73
2023/10/11 00:17:36;;;;;;;4.05;2.70;;;;;;;12.00;69.09;95464.66;5075931;28;20020;-73
2023/10/11 00:20:27;;;;;;;4.57;2.78;;;;;;;11.87;69.54;95476.16;5076164;28;20076;-73
2023/10/11 00:22:53;;;;;;;4.63;2.75;;;;;;;11.64;69.72;95463.09;5091475;28;20055;-73
2023/10/11 00:25:23;;;;;;;5.10;2.70;;;;;;;11.79;69.46;95467.16;5092657;28;20028;-73
2023/10/11 00:27:50;;;;;;;5.68;3.00;;;;;;;11.73;69.51;95467.63;5092657;28;20032;-73
2023/10/11 00:30:17;;;;;;;5.22;2.90;;;;;;;11.73;69.43;95466.78;5055089;28;20387;-73
2023/10/11 00:32:45;;;;;;;5.25;3.20;;;;;;;11.82;69.50;95476.50;5072425;28;20028;-73
2023/10/11 00:35:18;;;;;;;5.70;2.70;;;;;;;11.82;69.26;95471.28;5089263;28;20036;-73
2023/10/11 00:37:44;;;;;;;3.78;2.60;;;;;;;11.82;69.37;95476.50;5072360;28;20033;-73
2023/10/11 00:40:13;;;;;;;5.80;3.17;;;;;;;11.64;69.80;95473.53;5083527;28;20032;-73
2023/10/11 00:42:39;;;;;;;3.50;2.83;;;;;;;11.62;69.63;95476.25;5075964;28;20024;-73
2023/10/11 00:45:07;;;;;;;3.92;2.83;;;;;;;11.47;70.20;95467.00;5075607;28;20039;-73
2023/10/11 00:47:40;;;;;;;4.40;3.00;;;;;;;11.54;70.15;95463.00;5092305;28;20489;-73
2023/10/11 00:50:14;;;;;;;4.00;2.85;;;;;;;11.60;70.03;95472.13;5091122;28;20123;-73
2023/10/11 00:52:41;;;;;;;4.00;2.97;;;;;;;11.44;69.83;95464.63;5092255;28;20024;-73
2023/10/11 00:55:13;;;;;;;3.97;2.85;;;;;;;11.51;69.94;95473.66;5091319;28;20059;-73
2023/10/11 00:57:39;;;;;;;4.40;3.15;;;;;;;11.59;69.70;95486.91;5071985;28;20462;-73
2023/10/11 01:00:09;;;;;;;5.40;2.90;;;;;;;11.66;69.35;95489.84;5072718;28;20032;-73
2023/10/11 01:02:35;;;;;;;3.60;2.80;;;;;;;11.71;69.22;95492.13;5071861;28;20028;-73
2023/10/11 01:05:01;;;;;;;5.30;3.00;;;;;;;11.15;70.34;95467.66;5055611;28;20101;-73
2023/10/11 01:07:28;;;;;;;4.63;3.42;;;;;;;11.09;70.56;95491.53;5082556;28;20048;-73
2023/10/11 01:09:56;;;;;;;5.47;3.90;;;;;;;10.96;71.15;95477.78;5073471;28;20046;-73
2023/10/11 01:12:22;;;;;;;5.32;3.90;;;;;;;10.99;71.35;95482.75;5071591;28;20028;-73
2023/10/11 01:14:59;;;;;;;7.57;4.07;;;;;;;11.00;71.97;95504.38;5055043;28;20098;-73
2023/10/11 01:17:31;;;;;;;5.25;3.83;;;;;;;11.09;71.87;95506.31;5089212;28;20497;-73
2023/10/11 01:19:59;;;;;;;5.47;3.97;;;;;;;11.27;71.69;95501.50;5073730;28;20039;-73
2023/10/11 01:22:26;;;;;;;5.47;4.20;;;;;;;11.15;71.89;95509.28;5074780;28;20089;-73
2023/10/11 01:24:53;;;;;;;5.53;3.90;;;;;;;11.01;71.81;95473.06;5054783;28;20067;-73
2023/10/11 01:27:21;;;;;;;4.70;3.55;;;;;;;11.13;72.24;95505.94;5054612;28;20495;-73
2023/10/11 01:29:46;;;;;;;7.05;4.15;;;;;;;11.28;71.58;95518.75;5054881;28;20044;-73
2023/10/11 01:32:12;;;;;;;5.25;4.00;;;;;;;10.88;72.36;95480.09;5072166;28;20032;-73
2023/10/11 01:34:37;;;;;;;5.70;3.92;;;;;;;11.21;72.02;95507.16;5080730;28;20028;-73
2023/10/11 01:37:03;;;;;;;4.57;3.72;;;;;;;11.13;71.65;95510.31;5057833;28;20426;-73
2023/10/11 01:39:32;;;;;;;5.15;3.45;;;;;;;11.13;71.28;95505.94;5074478;28;20024;-73
2023/10/11 01:41:58;;;;;;;6.65;3.40;;;;;;;11.25;71.19;95509.41;5091266;28;20032;-73
2023/10/11 01:44:24;;;;;;;7.75;5.07;;;;;;;11.31;70.74;95519.38;5072217;28;20032;-73
2023/10/11 01:46:49;;;;;;;6.97;4.95;;;;;;;11.08;70.54;95484.66;5070841;28;20036;-73
2023/10/11 01:49:15;;;;;;;7.95;6.43;;;;;;;11.10;70.39;95500.97;5070949;28;20036;-73
2023/10/11 01:51:46;;;;;;;9.35;5.78;;;;;;;11.30;70.34;95506.47;5087059;28;20039;-73
2023/10/11 01:54:11;;;;;;;;;;;;;;;11.27;70.83;95525.72;5055585;28;20036;-73
2023/10/11 01:56:38;;;;;;;9.57;5.80;;;;;;;11.13;71.32;95521.56;5053903;28;19975;-73
2023/10/11 01:59:04;;;;;;;6.05;4.55;;;;;;;10.98;71.67;95485.44;5071973;28;20033;-73
2023/10/11 02:01:39;;;;;;;5.85;4.22;;;;;;;11.23;71.53;95515.66;5071848;28;20063;-73
2023/10/11 02:04:04;;;;;;;5.13;3.90;;;;;;;11.19;72.06;95494.25;5075468;28;20039;-73
2023/10/11 02:06:33;;;;;;;6.32;3.80;;;;;;;11.37;71.97;95511.09;5073663;28;20391;-73
2023/10/11 02:08:59;;;;;;;5.35;3.85;;;;;;;11.57;71.33;95508.78;5081490;28;20025;-73
2023/10/11 02:11:25;;;;;;;4.57;3.70;;;;;;;11.63;70.95;95511.72;5066150;28;20430;-73
2023/10/11 02:13:51;;;;;;;5.28;3.88;;;;;;;11.70;70.91;95519.06;5070569;28;20086;-73
2023/10/11 02:16:17;;;;;;;7.43;4.03;;;;;;;11.64;71.10;95509.94;5070460;28;20036;-73
2023/10/11 02:18:43;;;;;;;4.82;3.75;;;;;;;11.63;70.84;95493.50;5071441;28;20051;-73
2023/10/11 02:21:08;;;;;;;5.07;3.95;;;;;;;11.67;70.88;95519.31;5090470;28;20040;-73
2023/10/11 02:23:40;;;;;;;7.93;4.07;;;;;;;11.69;70.99;95520.84;5090439;28;20021;-73
2023/10/11 02:26:12;;;;;;;8.13;3.55;;;;;;;11.83;70.80;95522.41;5090752;28;20042;-73
2023/10/11 02:28:40;;;;;;;5.10;3.85;;;;;;;11.46;70.78;95495.75;5073493;28;20026;-73
2023/10/11 02:31:06;;;;;;;6.63;4.10;;;;;;;11.60;71.13;95532.78;5090292;28;20032;-73
2023/10/11 02:33:33;;;;;;;6.90;4.00;;;;;;;11.56;70.79;95538.31;5073509;28;20028;-73
2023/10/11 02:36:08;;;;;;;6.85;3.80;;;;;;;11.46;70.83;95548.59;5090214;28;20132;-73
2023/10/11 02:38:38;;;;;;;4.97;3.72;;;;;;;11.38;70.94;95549.16;5068702;28;20040;-73
2023/10/11 02:41:04;;;;;;;6.03;3.95;;;;;;;11.31;71.15;95545.38;5071129;28;20098;-73
2023/10/11 02:43:33;;;;;;;6.20;4.20;;;;;;;11.22;71.42;95553.03;5071127;28;20033;-73
2023/10/11 02:45:59;;;;;;;6.65;4.32;;;;;;;11.22;71.65;95551.25;5071693;28;20033;-73
2023/10/11 02:48:27;;;;;;;8.77;4.43;;;;;;;11.22;71.40;95540.84;5073257;28;20024;-73
2023/10/11 02:50:54;;;;;;;6.15;4.07;;;;;;;11.49;70.87;95558.78;5090004;28;20042;-73
2023/10/11 02:53:23;;;;;;;6.30;4.40;;;;;;;11.48;70.34;95541.53;5091214;28;20027;-73
2023/10/11 02:55:58;;;;;;;5.53;3.63;;;;;;;11.44;70.53;95555.69;5088731;28;20048;-73
2023/10/11 02:58:29;;;;;;;5.88;3.30;;;;;;;11.52;70.25;95563.75;5074269;28;20035;-73
2023/10/11 03:00:57;;;;;;;5.65;3.60;;;;;;;11.59;69.65;95564.97;5089860;28;20048;-73
2023/10/11 03:03:23;;;;;;;9.82;4.22;;;;;;;11.52;69.78;95553.34;5089848;28;20032;-73
2023/10/11 03:05:48;;;;;;;7.30;4.38;;;;;;;11.30;70.33;95527.28;5088250;28;20036;-73
2023/10/11 03:08:14;;;;;;;4.68;3.47;;;;;;;11.46;70.24;95553.81;5069602;28;20036;-73
2023/10/11 03:10:43;;;;;;;5.28;3.40;;;;;;;11.52;69.88;95549.91;5052834;28;20036;-73
2023/10/11 03:13:11;;;;;;;5.85;3.35;;;;;;;11.43;70.34;95548.84;5055272;28;20060;-73
2023/10/11 03:15:38;;;;;;;4.88;3.45;;;;;;;11.21;70.90;95552.19;5056317;28;20040;-73
2023/10/11 03:18:06;;;;;;;6.90;3.80;;;;;;;11.01;71.62;95556.25;5089137;28;20032;-73
2023/10/11 03:20:40;;;;;;;5.15;3.45;;;;;;;11.06;71.35;95561.09;5089508;28;20048;-72
2023/10/11 03:23:12;;;;;;;8.93;4.38;;;;;;;10.70;72.45;95539.47;5088668;28;20093;-73
2023/10/11 03:25:38;;;;;;;8.98;5.05;;;;;;;10.69;73.30;95572.38;5089584;28;20038;-73
2023/10/11 03:28:05;;;;;;;5.93;4.60;;;;;;;10.71;73.28;95570.50;5055945;28;20028;-73
2023/10/11 03:30:35;;;;;;;9.30;5.05;;;;;;;10.72;72.73;95540.97;5089523;28;20111;-73
2023/10/11 03:33:02;;;;;;;7.20;4.72;;;;;;;10.94;72.82;95583.63;5089180;28;20035;-73
2023/10/11 03:35:33;;;;;;;6.57;4.05;;;;;;;10.62;74.11;95578.16;5056241;28;20040;-73
2023/10/11 03:37:59;;;;;;;6.60;4.32;;;;;;;10.86;73.30;95585.94;5090699;28;20097;-72
2023/10/11 03:40:34;;;;;;;6.45;4.40;;;;;;;10.71;72.95;95557.53;5089042;28;20036;-73
2023/10/11 03:43:04;;;;;;;10.40;5.07;;;;;;;10.83;73.24;95586.16;5073604;28;20511;-73
2023/10/11 03:45:34;;;;;;;8.57;4.35;;;;;;;10.78;73.23;95585.66;5090645;28;20028;-73
2023/10/11 03:47:59;;;;;;;8.35;4.90;;;;;;;10.94;73.46;95579.25;5089393;28;20051;-73
2023/10/11 03:50:34;;;;;;;7.20;3.80;;;;;;;11.00;72.34;95562.38;5084788;28;20415;-73
2023/10/11 03:53:13;;;;;;;6.45;4.07;;;;;;;11.21;72.16;95585.19;5069288;28;20032;-72
2023/10/11 03:55:47;;;;;;;5.95;4.25;;;;;;;11.05;72.61;95599.28;5069006;28;20555;-73
2023/10/11 04:01:12;;;;;;;6.10;4.22;;;;;;;11.06;72.56;95598.38;5090560;28;20056;-73
2023/10/11 04:03:40;;;;;;;7.25;4.35;;;;;;;11.22;71.84;95576.44;5089774;28;20062;-73
2023/10/11 04:06:14;;;;;;;7.70;4.40;;;;;;;11.37;71.44;95594.34;5069130;28;20525;-73
2023/10/11 04:08:55;;;;;;;5.28;3.58;;;;;;;11.19;71.47;95574.88;5069081;28;20029;-73
2023/10/11 04:11:30;;;;;;;8.80;4.40;;;;;;;11.25;71.65;95597.00;5069461;28;20043;-73
2023/10/11 04:13:56;;;;;;;6.13;4.22;;;;;;;11.23;71.41;95599.75;5069453;28;20036;-73
2023/10/11 04:16:23;;;;;;;7.53;4.45;;;;;;;11.22;71.55;95599.84;5068044;28;20029;-72
2023/10/11 04:18:52;;;;;;;7.18;4.50;;;;;;;11.24;71.56;95608.38;5067264;28;20028;-73
2023/10/11 04:21:38;;;;;;;8.13;4.70;;;;;;;11.50;70.65;95599.47;5069484;28;20094;-73
2023/10/11 04:24:06;;;;;;;6.40;4.38;;;;;;;11.62;70.37;95611.56;5067954;28;20024;-73
2023/10/11 04:29:06;;;;;;;8.23;4.22;;;;;;;11.55;70.94;95622.53;5052331;28;20494;-73
2023/10/11 04:31:36;;;;;;;7.40;4.38;;;;;;;11.49;70.67;95621.22;5071243;28;20483;-72
2023/10/11 04:34:02;;;;;;;6.88;4.15;;;;;;;11.37;71.11;95615.16;5072896;28;20036;-73
2023/10/11 04:36:28;;;;;;;7.38;4.35;;;;;;;11.40;70.88;95627.13;5055615;28;20094;-73
2023/10/11 04:39:03;;;;;;;4.88;3.85;;;;;;;11.58;70.36;95620.53;5055808;28;20486;-72
2023/10/11 04:41:37;;;;;;;6.63;3.80;;;;;;;11.53;70.51;95622.69;5072359;28;20025;-73
2023/10/11 04:44:13;;;;;;;7.65;3.80;;;;;;;11.69;69.96;95619.75;5072419;28;20040;-73
2023/10/11 04:46:44;;;;;;;5.97;3.67;;;;;;;11.79;69.22;95628.53;5056926;28;20029;-73
2023/10/11 04:49:18;;;;;;;;;;;;;;;11.67;69.62;95634.63;5056854;28;20075;-73
2023/10/11 04:51:47;;;;;;;7.70;3.75;;;;;;;11.48;70.33;95629.13;5072125;28;19924;-73
2023/10/11 04:54:13;;;;;;;6.35;3.65;;;;;;;11.59;69.84;95637.84;5072113;28;20028;-73
2023/10/11 04:59:12;;;;;;;;;;;;;;;11.60;69.94;95644.69;5073851;28;20040;-73
2023/10/11 05:04:33;;;;;;;6.47;3.72;;;;;;;11.84;69.32;95636.00;5044181;28;20048;-73
2023/10/11 05:07:07;;;;;;;7.03;3.42;;;;;;;11.64;69.26;95637.47;5073679;28;20032;-73
2023/10/11 05:09:39;;;;;;;6.25;3.88;;;;;;;11.66;69.08;95643.41;5064221;28;20115;-73
2023/10/11 05:32:49;;;;;;;7.95;4.20;;;;;;;11.99;67.59;95673.94;5083030;28;20028;-73
2023/10/11 05:51:29;;;;;;;4.15;2.72;;;;;;;12.23;62.31;95663.47;5065763;28;20046;-73
2023/10/11 05:53:54;;;;;;;4.43;2.80;;;;;;;12.29;62.35;95668.19;5082154;28;20027;-73
2023/10/11 05:56:23;;;;;;;6.28;2.63;;;;;;;12.37;62.08;95659.81;5076928;28;20047;-73
2023/10/11 05:58:52;;;;;;;4.80;2.40;;;;;;;12.24;61.85;95644.25;5077779;28;20042;-73
2023/10/11 06:01:21;;;;;;;4.80;2.67;;;;;;;12.38;62.17;95663.22;5046094;28;20057;-73
2023/10/11 06:03:55;;;;;;;7.53;2.25;;;;;;;12.30;61.82;95663.81;5079065;28;20027;-73
2023/10/11 06:06:23;;;;;;;6.38;2.65;;;;;;;12.35;61.39;95666.06;5068820;28;20075;-73
2023/10/11 06:08:50;;;;;;;5.20;2.55;;;;;;;12.36;61.17;95676.38;5076831;28;20497;-73
2023/10/11 06:11:16;;;;;;;7.13;2.65;;;;;;;12.42;62.01;95690.69;5087943;28;20032;-73
2023/10/11 06:13:43;;;;;;;8.43;2.63;;;;;;;12.42;61.25;95690.69;5079030;28;20495;-74
2023/10/11 06:16:13;;;;;;;7.43;2.60;;;;;;;12.63;61.13;95693.44;5083323;28;20028;-73
2023/10/11 06:18:39;;;;;;;4.00;2.25;;;;;;;12.59;60.68;95695.47;5087779;28;20078;-72
2023/10/11 06:23:55;;;;;;;7.38;3.30;;;;;;;12.98;62.11;95706.34;5084713;28;20031;-73
2023/10/11 06:29:07;;;;;;;7.82;3.20;;;;;;;13.31;61.38;95715.94;5063122;28;20039;-70
2023/10/11 06:31:43;;;;;;;3.47;2.67;;;;;;;13.45;60.83;95721.84;5061338;28;20036;-76
2023/10/11 06:34:17;;;;;;;8.45;3.30;;;;;;;13.49;59.93;95726.69;5062927;28;20509;-74
2023/10/11 06:36:49;;;;;;;5.28;3.35;;;;;;;13.23;60.39;95710.44;5060767;28;20498;-74
2023/10/11 06:39:34;;;;;;;4.78;2.80;;;;;;;13.39;60.78;95730.97;5063898;28;20414;-73
2023/10/11 06:42:06;;;;;;;8.07;3.60;;;;;;;13.32;60.40;95727.22;5054431;28;20048;-75
2023/10/11 06:44:33;;;;;;;8.52;3.30;;;;;;;13.27;60.91;95738.00;5081726;28;20098;-76
2023/10/11 06:47:03;;;;;;;6.22;3.00;;;;;;;13.40;60.23;95738.69;5072444;28;20037;-74
2023/10/11 06:49:32;;;;;;;7.93;3.17;;;;;;;13.71;58.84;95741.47;5078268;28;20410;-75
2023/10/11 06:51:58;;;;;;;7.40;3.10;;;;;;;13.57;58.79;95739.16;5072715;28;20494;-76
2023/10/11 06:54:25;;;;;;;4.57;3.08;;;;;;;13.60;58.65;95708.38;5067433;28;20036;-76
2023/10/11 06:56:50;;;;;;;8.65;3.33;;;;;;;14.35;57.57;95737.97;5064042;28;20043;-75
2023/10/11 06:59:19;;;;;;;7.45;2.95;;;;;;;14.58;57.27;95735.25;5081246;28;20021;-73
2023/10/11 07:01:45;;;;;;;5.53;3.20;;;;;;;15.08;54.30;95728.31;5078269;28;20553;-74
2023/10/11 07:04:18;;;;;;;4.70;3.00;;;;;;;17.09;50.11;95722.50;5060801;28;20051;-74
2023/10/11 07:06:46;;;;;;;5.90;3.03;;;;;;;18.30;46.80;95719.50;5062297;28;20059;-73
2023/10/11 07:09:20;;;;;;;6.05;2.78;;;;;;;19.08;44.29;95718.66;5061810;28;20509;-75
2023/10/11 07:12:14;;;;;;;5.95;3.30;;;;;;;19.68;42.57;95717.78;5075557;28;20073;-74
2023/10/11 07:14:40;;;;;;;5.72;3.00;;;;;;;20.31;40.48;95713.72;5078362;28;20402;-77
2023/10/11 07:17:08;;;;;;;8.30;3.17;;;;;;;21.28;39.16;95708.41;5070960;28;20115;-75
2023/10/11 07:19:36;;;;;;;6.40;3.25;;;;;;;22.51;36.17;95697.91;5071715;28;20021;-75
2023/10/11 07:22:04;;;;;;;5.68;2.50;;;;;;;23.58;34.65;95700.22;5078297;28;20097;-75
2023/10/11 07:26:56;;;;;;;4.57;2.53;;;;;;;25.00;32.04;95680.91;5078994;28;20473;-75
2023/10/11 07:29:22;;;;;;;5.22;2.70;;;;;;;25.88;30.51;95684.56;5068638;28;20051;-75
2023/10/11 07:31:51;;;;;;;6.60;2.90;;;;;;;26.18;30.62;95684.22;5072372;28;20036;-75
2023/10/11 07:34:18;;;;;;;6.10;3.00;;;;;;;25.79;30.65;95681.25;5061141;28;20033;-75
2023/10/11 07:36:45;;;;;;;6.40;3.05;;;;;;;25.83;30.23;95679.03;5057146;28;20107;-75
2023/10/11 07:41:48;;;;;;;5.20;2.83;;;;;;;25.01;31.33;95667.41;5087970;28;20105;-75
2023/10/11 07:44:14;;;;;;;5.28;3.00;;;;;;;25.82;30.16;95662.22;5067272;28;20059;-75
2023/10/11 07:46:40;;;;;;;8.00;2.83;;;;;;;26.75;28.60;95650.84;5070272;28;20657;-75
2023/10/11 07:49:06;;;;;;;5.03;3.00;;;;;;;26.83;28.75;95660.44;5082933;28;20549;-75
2023/10/11 07:51:35;;;;;;;6.25;3.10;;;;;;;25.51;29.82;95667.25;5074234;28;20035;-75
2023/10/11 07:54:06;;;;;;;6.17;3.00;;;;;;;24.46;31.83;95685.00;5070671;28;20032;-75
2023/10/11 07:56:35;;;;;;;7.55;3.42;;;;;;;24.91;31.28;95677.56;5089144;28;20096;-75
2023/10/11 07:59:07;;;;;;;5.90;3.22;;;;;;;23.69;33.32;95683.00;5082176;28;20027;-75
2023/10/11 08:01:42;;;;;;;6.53;3.33;;;;;;;23.15;33.98;95685.03;5052420;28;20052;-75
2023/10/11 08:04:29;;;;;;;5.53;3.50;;;;;;;22.59;35.11;95689.88;5077444;28;20024;-75
2023/10/11 08:07:06;;;;;;;8.25;3.80;;;;;;;21.50;36.75;95683.88;5072445;28;20548;-75
2023/10/11 08:09:52;;;;;;;7.65;3.25;;;;;;;21.42;37.08;95695.34;5086530;28;20032;-75
2023/10/11 08:12:19;;;;;;;8.65;3.10;;;;;;;21.33;37.34;95698.97;5077147;28;20089;-76
2023/10/11 08:14:45;;;;;;;6.82;3.60;;;;;;;20.95;38.42;95700.63;5086863;28;20073;-77
2023/10/11 08:17:14;;;;;;;5.60;3.35;;;;;;;20.58;38.98;95693.28;5092196;28;20574;-75
2023/10/11 08:19:47;;;;;;;5.43;3.08;;;;;;;20.32;39.45;95702.19;5069674;28;20031;-76
2023/10/11 08:22:16;;;;;;;4.38;3.13;;;;;;;19.90;40.23;95716.34;5064899;28;20111;-77
2023/10/11 08:24:46;;;;;;;7.00;3.20;;;;;;;19.90;40.51;95710.25;5082816;28;20056;-78
2023/10/11 08:27:22;;;;;;;5.82;3.67;;;;;;;19.42;41.49;95707.31;5055227;28;20111;-78
2023/10/11 08:29:53;;;;;;;8.68;3.28;;;;;;;19.09;42.54;95717.72;5071747;28;20463;-78
2023/10/11 08:32:18;;;;;;;7.47;3.47;;;;;;;18.94;42.70;95720.09;5088070;28;20039;-77
2023/10/11 08:34:46;;;;;;;4.45;3.38;;;;;;;18.64;43.34;95720.56;5092804;28;20032;-78
2023/10/11 08:37:14;;;;;;;6.20;2.85;;;;;;;18.52;42.89;95689.22;5090434;28;20111;-77
2023/10/11 08:39:44;;;;;;;4.57;2.90;;;;;;;18.52;43.98;95718.16;5080532;28;20029;-77
2023/10/11 08:42:14;;;;;;;4.88;3.30;;;;;;;18.29;44.18;95717.00;5075010;28;20233;-76
2023/10/11 08:44:43;;;;;;;7.78;3.42;;;;;;;18.20;44.38;95718.75;5090393;28;20035;-79
2023/10/11 08:47:09;;;;;;;8.00;3.65;;;;;;;18.18;44.57;95710.19;5078250;28;20043;-79
2023/10/11 08:49:35;;;;;;;5.47;3.15;;;;;;;18.15;44.42;95715.75;5082202;28;20036;-79
2023/10/11 08:52:00;;;;;;;5.35;3.30;;;;;;;18.40;44.01;95702.78;5083329;28;20032;-79
2023/10/11 08:54:30;;;;;;;6.15;3.50;;;;;;;18.27;44.14;95703.19;5061108;28;20048;-79
2023/10/11 08:56:57;;;;;;;5.47;3.35;;;;;;;18.21;44.24;95699.34;5069385;28;20517;-78
2023/10/11 08:59:25;;;;;;;9.68;3.58;;;;;;;18.16;44.52;95701.63;5072154;28;20044;-79
2023/10/11 09:01:59;;;;;;;5.57;3.40;;;;;;;17.95;45.25;95682.72;5071710;28;20529;-79
2023/10/11 09:04:27;;;;;;;6.60;3.05;;;;;;;18.14;44.74;95700.97;5070618;28;20486;-79
2023/10/11 09:06:57;;;;;;;6.55;3.30;;;;;;;18.29;44.61;95698.59;5073206;28;20039;-79
2023/10/11 09:09:39;;;;;;;4.38;2.95;;;;;;;18.61;43.36;95700.63;5039974;28;20025;-79
2023/10/11 09:12:23;;;;;;;8.55;3.85;;;;;;;18.43;44.11;95703.31;5053447;28;20571;-79
2023/10/11 09:14:58;;;;;;;5.10;3.03;;;;;;;17.87;44.35;95701.88;5069740;28;20097;-78
2023/10/11 09:17:27;;;;;;;7.03;3.13;;;;;;;18.33;43.90;95699.97;5052453;28;20039;-79
2023/10/11 09:19:57;;;;;;;4.88;2.85;;;;;;;18.06;44.67;95703.53;5070324;28;20031;-79
2023/10/11 09:22:23;;;;;;;4.75;3.47;;;;;;;18.05;45.38;95686.06;5053879;28;20415;-79
2023/10/11 09:25:06;;;;;;;6.57;3.22;;;;;;;18.12;45.17;95704.72;5070125;28;20028;-79
2023/10/11 09:27:50;;;;;;;8.27;3.50;;;;;;;18.43;44.28;95691.97;5055384;28;20052;-79
2023/10/11 09:30:19;;;;;;;6.40;3.17;;;;;;;18.43;44.36;95691.97;5071770;28;20036;-79
2023/10/11 09:32:49;;;;;;;7.50;3.42;;;;;;;18.42;44.88;95690.31;5071942;28;20291;-78
2023/10/11 09:35:26;;;;;;;4.97;3.30;;;;;;;18.57;43.84;95693.19;5071649;28;20044;-78
2023/10/11 09:38:00;;;;;;;4.82;3.17;;;;;;;18.49;44.60;95691.34;5055500;28;20270;-78
2023/10/11 09:40:31;;;;;;;4.50;3.42;;;;;;;18.55;44.30;95688.09;5072616;28;20094;-78
2023/10/11 09:43:00;;;;;;;9.27;3.50;;;;;;;18.68;43.77;95691.13;5071446;28;20112;-79
2023/10/11 09:45:30;;;;;;;4.45;3.28;;;;;;;18.52;43.77;95654.19;5070924;28;20465;-79
2023/10/11 09:47:55;;;;;;;7.63;3.42;;;;;;;18.68;43.86;95675.34;5071097;28;20062;-78
2023/10/11 09:50:22;;;;;;;7.40;3.72;;;;;;;18.62;44.26;95681.22;5037885;28;20032;-79
2023/10/11 09:52:51;;;;;;;5.57;3.22;;;;;;;18.74;43.98;95677.38;5072323;28;20025;-79
2023/10/11 09:55:19;;;;;;;5.88;3.42;;;;;;;18.74;43.79;95687.06;5054740;28;20052;-79
2023/10/11 09:57:57;;;;;;;5.10;3.20;;;;;;;18.93;42.79;95680.75;5071151;28;20528;-79
2023/10/11 10:00:27;;;;;;;4.82;3.17;;;;;;;18.73;43.80;95669.63;5070668;28;20531;-79
2023/10/11 10:02:52;;;;;;;5.57;3.20;;;;;;;18.93;42.54;95672.88;5070796;28;20090;-79
2023/10/11 10:05:22;;;;;;;5.40;3.10;;;;;;;18.88;43.45;95670.69;5070910;28;20036;-79
2023/10/11 10:07:51;;;;;;;5.47;3.28;;;;;;;18.98;43.53;95660.88;5070807;28;20510;-79
2023/10/11 10:10:24;;;;;;;5.43;3.22;;;;;;;19.02;42.47;95655.28;5037876;28;20029;-79
2023/10/11 10:12:59;;;;;;;4.03;2.88;;;;;;;18.69;42.79;95657.75;5070691;28;20063;-79
2023/10/11 10:15:32;;;;;;;5.90;2.97;;;;;;;18.83;42.68;95654.53;5071667;28;20082;-79
2023/10/11 10:18:00;;;;;;;3.35;2.50;;;;;;;18.87;43.38;95648.00;5054417;28;20080;-79
2023/10/11 10:20:38;;;;;;;7.70;2.72;;;;;;;18.90;43.61;95638.97;5071678;28;20483;-79
2023/10/11 10:23:16;;;;;;;4.55;2.92;;;;;;;18.97;42.94;95643.44;5072058;28;20056;-78
2023/10/11 10:25:48;;;;;;;5.25;2.90;;;;;;;19.00;42.86;95644.09;5071711;28;20509;-79
2023/10/11 10:28:34;;;;;;;5.85;2.97;;;;;;;19.25;41.72;95631.81;5070666;28;20036;-78
2023/10/11 10:31:09;;;;;;;4.30;2.83;;;;;;;19.20;42.77;95627.88;5071667;28;20529;-79
2023/10/11 10:33:39;;;;;;;4.57;3.05;;;;;;;19.37;42.75;95635.81;5070314;28;20498;-79
2023/10/11 10:36:28;;;;;;;3.53;2.78;;;;;;;19.32;41.93;95631.03;5037016;28;20039;-78
2023/10/11 10:41:39;;;;;;;4.97;2.67;;;;;;;19.29;41.28;95622.63;5071675;28;20501;-79
2023/10/11 10:44:17;;;;;;;3.78;2.20;;;;;;;19.34;41.03;95617.72;5070364;28;20064;-79
2023/10/11 10:46:53;;;;;;;3.88;2.28;;;;;;;19.08;41.87;95613.34;5069914;28;20032;-79
2023/10/11 10:49:42;;;;;;;3.38;2.33;;;;;;;19.37;40.86;95610.31;5053643;28;20040;-79
2023/10/11 10:52:18;;;;;;;5.10;2.40;;;;;;;19.46;40.27;95597.97;5070131;28;20511;-79
2023/10/11 10:55:03;;;;;;;6.82;2.40;;;;;;;19.45;40.64;95598.97;5070211;28;20174;-79
2023/10/11 10:57:33;;;;;;;3.05;2.17;;;;;;;19.43;40.91;95593.84;5053582;28;20636;-78
2023/10/11 11:00:00;;;;;;;5.60;2.45;;;;;;;19.47;40.23;95588.25;5053350;28;20505;-79
2023/10/11 11:02:25;;;;;;;3.08;2.25;;;;;;;19.30;40.80;95597.94;5053268;28;20039;-79
2023/10/11 11:04:51;;;;;;;7.65;2.35;;;;;;;19.41;40.82;95597.63;5071438;28;20024;-78
2023/10/11 11:07:23;;;;;;;5.05;2.10;;;;;;;19.49;40.23;95573.94;5069912;28;20033;-80
2023/10/11 11:09:54;;;;;;;4.55;2.17;;;;;;;19.52;40.15;95583.31;5053466;28;20029;-79
2023/10/11 11:12:23;;;;;;;3.03;2.28;;;;;;;19.45;40.06;95598.97;5053869;28;20044;-79
2023/10/11 11:14:55;;;;;;;5.63;2.20;;;;;;;19.35;40.53;95587.75;5053222;28;20033;-79
2023/10/11 11:17:20;;;;;;;2.78;2.22;;;;;;;19.37;40.70;95583.16;5070939;28;20082;-79
2023/10/11 11:20:13;;;;;;;2.88;2.10;;;;;;;19.56;40.14;95588.09;5069908;28;20036;-79
2023/10/11 11:22:39;;;;;;;3.75;2.10;;;;;;;19.63;40.00;95570.63;5070873;28;20039;-78
2023/10/11 11:25:26;;;;;;;6.45;2.50;;;;;;;19.37;39.98;95594.50;5053136;28;20087;-78
2023/10/11 11:28:24;;;;;;;4.13;1.90;;;;;;;19.43;40.10;95578.03;5069864;28;20062;-79
2023/10/11 11:31:04;;;;;;;6.00;2.10;;;;;;;19.26;40.44;95591.34;5070895;28;20045;-78
2023/10/11 11:33:47;;;;;;;4.53;2.25;;;;;;;19.22;40.76;95587.38;5070987;28;20459;-78
2023/10/11 11:36:30;;;;;;;4.35;2.45;;;;;;;19.29;40.58;95583.13;5069894;28;20177;-79
2023/10/11 11:39:16;;;;;;;3.67;2.30;;;;;;;19.39;40.73;95578.53;5053702;28;20084;-79
2023/10/11 11:41:42;;;;;;;7.15;2.53;;;;;;;19.61;39.89;95577.06;5073721;28;20479;-78
2023/10/11 11:44:14;;;;;;;3.85;2.08;;;;;;;19.71;40.08;95574.31;5073571;28;20029;-79
2023/10/11 11:46:43;;;;;;;3.50;2.17;;;;;;;19.81;39.68;95572.34;5074798;28;20040;-79
2023/10/11 11:49:09;;;;;;;4.40;2.20;;;;;;;19.78;39.12;95568.22;5074989;28;20394;-79
2023/10/11 11:51:37;;;;;;;4.00;2.03;;;;;;;19.48;40.17;95527.50;5056838;28;20494;-79
2023/10/11 11:54:03;;;;;;;3.50;2.10;;;;;;;19.35;40.37;95571.94;5074779;28;20052;-79
2023/10/11 11:56:29;;;;;;;4.45;2.35;;;;;;;19.29;40.20;95567.31;5074550;28;20455;-79
2023/10/11 11:59:00;;;;;;;5.72;2.05;;;;;;;19.15;40.45;95545.91;5074550;28;20035;-78
2023/10/11 12:01:26;;;;;;;3.72;2.08;;;;;;;19.40;40.27;95561.75;5057358;28;20052;-78
2023/10/11 12:03:54;;;;;;;4.63;2.20;;;;;;;19.38;40.37;95561.06;5073159;28;20027;-78
2023/10/11 12:06:23;;;;;;;4.88;2.60;;;;;;;19.50;40.03;95562.41;5056675;28;20154;-79
2023/10/11 12:08:59;;;;;;;4.03;2.05;;;;;;;19.47;39.71;95565.34;5056957;28;20032;-79
2023/10/11 12:11:30;;;;;;;4.50;2.10;;;;;;;19.54;40.07;95555.81;5056464;28;20025;-78
2023/10/11 12:14:00;;;;;;;6.88;2.38;;;;;;;19.71;39.43;95547.94;5073115;28;20025;-79
2023/10/11 12:16:25;;;;;;;2.70;2.00;;;;;;;19.75;39.98;95551.88;5056695;28;20483;-78
2023/10/11 12:18:58;;;;;;;5.38;2.35;;;;;;;19.82;39.19;95553.69;5072996;28;20063;-79
2023/10/11 12:21:24;;;;;;;3.35;1.83;;;;;;;19.96;39.31;95559.28;5072978;28;20032;-79
2023/10/11 12:23:50;;;;;;;2.90;1.98;;;;;;;19.91;39.09;95557.16;5072939;28;20029;-79
2023/10/11 12:26:20;;;;;;;3.90;1.90;;;;;;;19.52;39.22;95552.50;5072542;28;20406;-79
2023/10/11 12:28:46;;;;;;;4.07;1.98;;;;;;;19.66;39.62;95558.16;5056633;28;20048;-79
2023/10/11 12:31:11;;;;;;;3.45;2.15;;;;;;;19.40;39.29;95512.50;5056154;28;20028;-78
2023/10/11 12:33:36;;;;;;;4.53;2.00;;;;;;;19.62;39.31;95540.00;5073926;28;20040;-79
2023/10/11 12:36:08;;;;;;;4.55;2.15;;;;;;;19.74;39.50;95550.25;5073777;28;20037;-78
2023/10/11 12:38:38;;;;;;;6.18;2.08;;;;;;;19.67;39.35;95539.56;5072645;28;20039;-76
2023/10/11 12:41:04;;;;;;;5.03;1.65;;;;;;;19.33;39.04;95508.06;5056688;28;20488;-79
2023/10/11 12:43:30;;;;;;;3.80;1.73;;;;;;;19.78;39.06;95546.28;5055810;28;20037;-79
2023/10/11 12:45:55;;;;;;;2.80;1.80;;;;;;;19.78;38.65;95547.13;5055866;28;20032;-79
2023/10/11 12:48:20;;;;;;;4.65;1.90;;;;;;;19.84;39.20;95543.00;5055822;28;20036;-79
2023/10/11 12:50:46;;;;;;;6.03;2.20;;;;;;;19.55;39.00;95531.09;5072330;28;20029;-79